Time,TemperatureF,DewpointF,PressureIn,WindDirection,WindDirectionDegrees,WindSpeedMPH,WindSpeedGustMPH,Humidity,HourlyPrecipIn,Conditions,Clouds,dailyrainin,SoftwareType,DateUTC
2013-05-19 00:01:00,66.5,60.5,29.85,SE,134,5.3,6.9,81,0.00,,,0.00,WeatherDisplay:10.37,2013-05-19 05:01:00,
2013-05-19 00:06:00,66.8,60.8,29.85,SE,139,5.7,6.0,81,0.00,,,0.00,WeatherDisplay:10.37,2013-05-19 05:06:00,
2013-05-19 00:11:00,67.1,61.1,29.85,SSE,156,5.8,8.1,81,0.00,,,0.00,WeatherDisplay:10.37,2013-05-19 05:11:00,
2013-05-19 00:16:00,67.4,61.0,29.85,SE,140,5.4,6.9,80,0.00,,,0.00,WeatherDisplay:10.37,2013-05-19 05:16:00,
2013-05-19 00:21:00,67.7,61.3,29.85,SE,136,6.6,8.1,80,0.00,,,0.00,WeatherDisplay:10.37,2013-05-19 05:21:00,
2013-05-19 00:26:00,67.6,61.2,29.85,SE,130,6.3,6.9,80,0.00,,,0.00,WeatherDisplay:10.37,2013-05-19 05:26:00,
2013-05-19 00:31:00,67.5,61.1,29.85,SE,136,5.6,6.9,80,0.00,,,0.00,WeatherDisplay:10.37,2013-05-19 05:31:00,
2013-05-19 00:36:00,67.4,61.0,29.85,ESE,120,6.6,7.0,80,0.00,,,0.00,WeatherDisplay:10.37,2013-05-19 05:36:00,
2013-05-19 00:41:00,67.2,61.2,29.84,SE,138,6.2,8.1,81,0.00,,,0.00,WeatherDisplay:10.37,2013-05-19 05:41:00,
2013-05-19 00:46:00,67.0,61.0,29.84,SE,127,5.4,5.8,81,0.00,,,0.00,WeatherDisplay:10.37,2013-05-19 05:46:00,
2013-05-19 00:51:00,66.8,60.8,29.84,ESE,122,4.8,5.0,81,0.00,,,0.00,WeatherDisplay:10.37,2013-05-19 05:51:00,
2013-05-19 00:56:00,66.6,60.9,29.84,SE,133,5.8,6.0,82,0.00,,,0.00,WeatherDisplay:10.37,2013-05-19 05:56:00,
2013-05-19 01:01:00,66.7,61.4,29.84,ESE,122,6.9,8.1,83,0.00,,,0.00,WeatherDisplay:10.37,2013-05-19 06:01:00,
2013-05-19 01:06:00,67.0,61.3,29.84,ESE,117,7.2,9.2,82,0.00,,,0.00,WeatherDisplay:10.37,2013-05-19 06:06:00,
2013-05-19 01:11:00,66.9,61.2,29.84,SE,132,6.9,9.2,82,0.00,,,0.00,WeatherDisplay:10.37,2013-05-19 06:11:00,
2013-05-19 01:16:00,66.5,61.2,29.84,ESE,110,7.4,8.1,83,0.00,,,0.00,WeatherDisplay:10.37,2013-05-19 06:16:00,
2013-05-19 01:21:00,66.7,61.4,29.84,ESE,120,7.5,9.2,83,0.00,,,0.00,WeatherDisplay:10.37,2013-05-19 06:21:00,
2013-05-19 01:26:00,66.5,61.2,29.84,SE,134,6.2,6.9,83,0.00,,,0.00,WeatherDisplay:10.37,2013-05-19 06:26:00,
2013-05-19 01:31:00,66.2,60.9,29.84,SE,131,6.0,8.1,83,0.00,,,0.00,WeatherDisplay:10.37,2013-05-19 06:31:00,
2013-05-19 01:36:00,66.0,61.0,29.84,SE,130,5.8,6.9,84,0.00,,,0.00,WeatherDisplay:10.37,2013-05-19 06:36:00,
2013-05-19 01:41:00,65.7,61.1,29.84,ESE,114,6.3,7.0,85,0.00,,,0.00,WeatherDisplay:10.37,2013-05-19 06:41:00,
2013-05-19 01:47:00,65.8,61.2,29.84,SE,127,7.5,10.4,85,0.00,,,0.00,WeatherDisplay:10.37,2013-05-19 06:47:00,
2013-05-19 01:52:00,66.2,61.6,29.84,SE,125,8.5,11.5,85,0.00,,,0.00,WeatherDisplay:10.37,2013-05-19 06:52:00,
2013-05-19 01:57:00,66.2,61.2,29.84,ESE,119,7.1,9.2,84,0.00,,,0.00,WeatherDisplay:10.37,2013-05-19 06:57:00,
2013-05-19 02:02:00,66.1,61.5,29.83,ESE,108,9.3,10.4,85,0.00,,,0.00,WeatherDisplay:10.37,2013-05-19 07:02:00,
2013-05-19 02:07:00,66.5,61.8,29.83,ESE,119,8.9,11.5,85,0.00,,,0.00,WeatherDisplay:10.37,2013-05-19 07:07:00,
2013-05-19 02:12:00,66.4,61.4,29.84,SE,131,5.7,7.0,84,0.00,,,0.00,WeatherDisplay:10.37,2013-05-19 07:12:00,
2013-05-19 02:17:00,66.0,61.4,29.84,SE,131,6.7,9.2,85,0.00,,,0.00,WeatherDisplay:10.37,2013-05-19 07:17:00,
2013-05-19 02:22:00,65.8,61.5,29.84,SE,141,5.5,7.0,86,0.00,,,0.00,WeatherDisplay:10.37,2013-05-19 07:22:00,
2013-05-19 02:27:00,65.8,61.5,29.84,SSE,149,5.2,7.0,86,0.00,,,0.00,WeatherDisplay:10.37,2013-05-19 07:27:00,
2013-05-19 02:32:00,66.0,62.0,29.84,ESE,122,6.1,8.1,87,0.00,,,0.00,WeatherDisplay:10.37,2013-05-19 07:32:00,
2013-05-19 02:37:00,66.0,62.0,29.85,SSE,153,5.5,6.9,87,0.00,,,0.00,WeatherDisplay:10.37,2013-05-19 07:37:00,
2013-05-19 02:42:00,65.8,61.5,29.85,SSE,148,3.2,4.0,86,0.00,,,0.00,WeatherDisplay:10.37,2013-05-19 07:42:00,
2013-05-19 02:47:00,65.1,60.8,29.85,SE,136,2.0,3.5,86,0.00,,,0.00,WeatherDisplay:10.37,2013-05-19 07:47:00,
2013-05-19 02:52:00,64.3,60.7,29.85,SSE,158,2.0,2.3,88,0.00,,,0.00,WeatherDisplay:10.37,2013-05-19 07:52:00,
2013-05-19 02:57:00,63.9,60.3,29.86,SSE,152,2.0,2.3,88,0.00,,,0.00,WeatherDisplay:10.37,2013-05-19 07:57:00,
2013-05-19 03:02:00,63.6,60.3,29.86,SE,146,2.0,2.3,89,0.00,,,0.00,WeatherDisplay:10.37,2013-05-19 08:02:00,
2013-05-19 03:07:00,63.3,60.0,29.86,South,191,1.9,2.3,89,0.00,,,0.00,WeatherDisplay:10.37,2013-05-19 08:07:00,
2013-05-19 03:12:00,63.2,60.2,29.86,SSE,152,1.0,2.3,90,0.00,,,0.00,WeatherDisplay:10.37,2013-05-19 08:12:00,
2013-05-19 03:17:00,63.1,60.1,29.85,SSE,148,1.0,1.1,90,0.00,,,0.00,WeatherDisplay:10.37,2013-05-19 08:17:00,
2013-05-19 03:22:00,63.2,60.5,29.86,SE,146,1.1,2.3,91,0.00,,,0.00,WeatherDisplay:10.37,2013-05-19 08:22:00,
2013-05-19 03:27:00,63.1,60.4,29.86,SE,125,1.0,2.3,91,0.00,,,0.00,WeatherDisplay:10.37,2013-05-19 08:27:00,
2013-05-19 03:32:00,63.0,60.3,29.85,SE,125,1.4,2.3,91,0.00,,,0.00,WeatherDisplay:10.37,2013-05-19 08:32:00,
2013-05-19 03:37:00,63.0,60.3,29.85,ESE,120,2.0,3.5,91,0.00,,,0.00,WeatherDisplay:10.37,2013-05-19 08:37:00,
2013-05-19 03:42:00,63.0,60.0,29.85,ESE,113,3.0,3.5,90,0.00,,,0.00,WeatherDisplay:10.37,2013-05-19 08:42:00,
2013-05-19 03:47:00,62.6,59.9,29.85,ESE,119,3.0,3.5,91,0.00,,,0.00,WeatherDisplay:10.37,2013-05-19 08:47:00,
2013-05-19 03:52:00,62.4,60.0,29.85,SE,125,2.5,3.5,92,0.00,,,0.00,WeatherDisplay:10.37,2013-05-19 08:52:00,
2013-05-19 03:57:00,62.5,60.1,29.85,SE,125,2.0,2.3,92,0.00,,,0.00,WeatherDisplay:10.37,2013-05-19 08:57:00,
2013-05-19 04:02:00,62.6,60.2,29.85,ESE,123,3.2,3.5,92,0.00,,,0.00,WeatherDisplay:10.37,2013-05-19 09:02:00,
2013-05-19 04:07:00,62.5,60.1,29.85,ESE,117,2.0,3.5,92,0.00,,,0.00,WeatherDisplay:10.37,2013-05-19 09:07:00,
2013-05-19 04:12:00,62.4,60.0,29.86,SE,131,1.2,2.3,92,0.00,,,0.00,WeatherDisplay:10.37,2013-05-19 09:12:00,
2013-05-19 04:17:00,62.3,60.2,29.86,ESE,123,2.2,3.5,93,0.00,,,0.00,WeatherDisplay:10.37,2013-05-19 09:17:00,
2013-05-19 04:22:00,62.3,59.9,29.86,SE,129,0.8,1.1,92,0.00,,,0.00,WeatherDisplay:10.37,2013-05-19 09:22:00,
2013-05-19 04:27:00,62.3,60.2,29.86,SE,129,0.9,1.1,93,0.00,,,0.00,WeatherDisplay:10.37,2013-05-19 09:27:00,
2013-05-19 04:32:00,62.1,59.7,29.84,ESE,104,2.9,4.0,92,0.00,,,0.00,WeatherDisplay:10.37,2013-05-19 09:32:00,
2013-05-19 04:37:00,62.0,60.0,29.84,SE,125,3.1,3.5,93,0.00,,,0.00,WeatherDisplay:10.37,2013-05-19 09:37:00,
2013-05-19 04:42:00,62.0,60.0,29.84,ESE,123,3.0,3.5,93,0.00,,,0.00,WeatherDisplay:10.37,2013-05-19 09:42:00,
2013-05-19 04:47:00,62.3,60.2,29.84,ESE,119,3.0,4.0,93,0.00,,,0.00,WeatherDisplay:10.37,2013-05-19 09:47:00,
2013-05-19 04:52:00,62.3,60.2,29.84,ESE,123,4.4,4.6,93,0.00,,,0.00,WeatherDisplay:10.37,2013-05-19 09:52:00,
2013-05-19 04:57:00,62.5,60.4,29.84,SE,136,4.0,4.6,93,0.00,,,0.00,WeatherDisplay:10.37,2013-05-19 09:57:00,
2013-05-19 05:02:00,62.6,60.8,29.84,ESE,117,4.4,5.8,94,0.00,,,0.00,WeatherDisplay:10.37,2013-05-19 10:02:00,
2013-05-19 05:07:00,63.0,61.2,29.84,ESE,120,4.4,5.0,94,0.00,CLR,,0.00,WeatherDisplay:10.37,2013-05-19 10:07:00,
2013-05-19 05:12:00,63.5,61.4,29.84,ESE,120,3.7,4.6,93,0.00,CLR,,0.00,WeatherDisplay:10.37,2013-05-19 10:12:00,
2013-05-19 05:17:00,63.7,61.6,29.84,ESE,107,3.5,5.0,93,0.00,CLR,,0.00,WeatherDisplay:10.37,2013-05-19 10:17:00,
2013-05-19 05:22:00,63.9,61.8,29.83,ESE,117,7.5,9.2,93,0.00,CLR,,0.00,WeatherDisplay:10.37,2013-05-19 10:22:00,
2013-05-19 05:27:00,63.9,61.5,29.83,ESE,119,5.7,8.1,92,0.00,CLR,,0.00,WeatherDisplay:10.37,2013-05-19 10:27:00,
2013-05-19 05:32:00,63.9,61.8,29.83,ESE,121,6.9,9.2,93,0.00,CLR,,0.00,WeatherDisplay:10.37,2013-05-19 10:32:00,
2013-05-19 05:37:00,64.1,61.7,29.83,SE,130,6.8,9.2,92,0.00,CLR,,0.00,WeatherDisplay:10.37,2013-05-19 10:37:00,
2013-05-19 05:42:00,64.3,61.9,29.83,SE,125,6.9,10.4,92,0.00,CLR,,0.00,WeatherDisplay:10.37,2013-05-19 10:42:00,
2013-05-19 05:47:00,64.3,61.9,29.83,SE,131,7.7,9.2,92,0.00,CLR,,0.00,WeatherDisplay:10.37,2013-05-19 10:47:00,
2013-05-19 05:52:00,64.1,61.7,29.82,SE,134,8.9,11.5,92,0.00,CLR,,0.00,WeatherDisplay:10.37,2013-05-19 10:52:00,
2013-05-19 05:57:00,64.1,61.7,29.83,SE,130,8.0,10.4,92,0.00,CLR,,0.00,WeatherDisplay:10.37,2013-05-19 10:57:00,
2013-05-19 06:02:00,64.2,61.8,29.83,SE,131,7.8,10.4,92,0.00,CLR,,0.00,WeatherDisplay:10.37,2013-05-19 11:02:00,
2013-05-19 06:07:00,64.5,62.1,29.83,ESE,120,9.9,12.0,92,0.00,CLR,,0.00,WeatherDisplay:10.37,2013-05-19 11:07:00,
2013-05-19 06:12:00,64.8,62.4,29.82,SE,134,9.9,12.7,92,0.00,CLR,,0.00,WeatherDisplay:10.37,2013-05-19 11:12:00,
2013-05-19 06:17:00,65.1,62.7,29.82,ESE,115,9.5,12.7,92,0.00,CLR,,0.00,WeatherDisplay:10.37,2013-05-19 11:17:00,
2013-05-19 06:22:00,65.4,63.0,29.81,ESE,102,9.2,12.7,92,0.00,CLR,,0.00,WeatherDisplay:10.37,2013-05-19 11:22:00,
2013-05-19 06:27:00,65.6,62.9,29.81,ESE,107,8.9,11.5,91,0.00,CLR,,0.00,WeatherDisplay:10.37,2013-05-19 11:27:00,
2013-05-19 06:32:00,65.9,63.2,29.82,SE,127,6.7,9.2,91,0.00,CLR,,0.00,WeatherDisplay:10.37,2013-05-19 11:32:00,
2013-05-19 06:38:00,66.2,63.5,29.83,ESE,120,8.1,10.4,91,0.00,CLR,,0.00,WeatherDisplay:10.37,2013-05-19 11:38:00,
2013-05-19 06:43:00,66.4,63.7,29.83,SE,138,7.8,10.4,91,0.00,CLR,,0.00,WeatherDisplay:10.37,2013-05-19 11:43:00,
2013-05-19 06:48:00,66.6,63.6,29.84,SE,142,6.7,9.2,90,0.00,CLR,,0.00,WeatherDisplay:10.37,2013-05-19 11:48:00,
2013-05-19 06:53:00,66.8,63.8,29.84,SE,130,7.4,10.4,90,0.00,CLR,,0.00,WeatherDisplay:10.37,2013-05-19 11:53:00,
2013-05-19 06:58:00,66.9,63.9,29.84,ESE,122,7.4,10.4,90,0.00,CLR,,0.00,WeatherDisplay:10.37,2013-05-19 11:58:00,
2013-05-19 07:03:00,67.1,63.7,29.84,SE,131,6.3,8.1,89,0.00,CLR,,0.00,WeatherDisplay:10.37,2013-05-19 12:03:00,
2013-05-19 07:08:00,67.3,63.9,29.85,SE,141,7.0,8.1,89,0.00,CLR,,0.00,WeatherDisplay:10.37,2013-05-19 12:08:00,
2013-05-19 07:13:00,67.4,64.0,29.85,SE,145,6.0,8.1,89,0.00,CLR,,0.00,WeatherDisplay:10.37,2013-05-19 12:13:00,
2013-05-19 07:18:00,67.6,63.9,29.85,SE,146,6.4,6.9,88,0.00,CLR,,0.00,WeatherDisplay:10.37,2013-05-19 12:18:00,
2013-05-19 07:23:00,67.7,64.0,29.85,SE,138,7.0,8.1,88,0.00,CLR,,0.00,WeatherDisplay:10.37,2013-05-19 12:23:00,
2013-05-19 07:28:00,67.9,64.2,29.85,SE,131,6.9,8.1,88,0.00,CLR,,0.00,WeatherDisplay:10.37,2013-05-19 12:28:00,
2013-05-19 07:33:00,68.0,64.6,29.85,SSE,148,5.1,5.8,89,0.01,RA,,0.01,WeatherDisplay:10.37,2013-05-19 12:33:00,
2013-05-19 07:38:00,68.2,65.2,29.86,SSE,148,4.3,4.6,90,0.01,RA,,0.01,WeatherDisplay:10.37,2013-05-19 12:38:00,
2013-05-19 07:43:00,68.3,64.9,29.86,SE,139,6.5,8.0,89,0.01,CLR,,0.01,WeatherDisplay:10.37,2013-05-19 12:43:00,
2013-05-19 07:48:00,68.5,65.1,29.85,SE,145,6.7,9.2,89,0.01,CLR,,0.01,WeatherDisplay:10.37,2013-05-19 12:48:00,
2013-05-19 07:53:00,68.8,65.1,29.84,SE,131,6.8,8.1,88,0.01,CLR,,0.01,WeatherDisplay:10.37,2013-05-19 12:53:00,
2013-05-19 07:58:00,69.1,65.4,29.83,ESE,123,9.6,11.5,88,0.01,CLR,,0.01,WeatherDisplay:10.37,2013-05-19 12:58:00,
2013-05-19 08:03:00,69.3,65.3,29.83,SE,136,9.5,11.5,87,0.01,CLR,,0.01,WeatherDisplay:10.37,2013-05-19 13:03:00,
2013-05-19 08:08:00,69.7,65.3,29.82,ESE,122,11.7,13.8,86,0.01,CLR,,0.01,WeatherDisplay:10.37,2013-05-19 13:08:00,
2013-05-19 08:13:00,69.9,65.5,29.83,SE,137,9.7,12.7,86,0.01,CLR,,0.01,WeatherDisplay:10.37,2013-05-19 13:13:00,
2013-05-19 08:18:00,70.2,65.8,29.83,ESE,119,5.6,8.1,86,0.01,CLR,,0.01,WeatherDisplay:10.37,2013-05-19 13:18:00,
2013-05-19 08:23:00,70.4,65.7,29.83,ESE,105,5.9,8.1,85,0.01,CLR,,0.01,WeatherDisplay:10.37,2013-05-19 13:23:00,
2013-05-19 08:28:00,70.6,65.5,29.83,East,94,6.2,10.4,84,0.01,CLR,,0.01,WeatherDisplay:10.37,2013-05-19 13:28:00,
2013-05-19 08:33:00,70.9,66.2,29.83,ESE,123,6.3,8.1,85,0.00,CLR,,0.01,WeatherDisplay:10.37,2013-05-19 13:33:00,
2013-05-19 08:38:00,71.4,66.3,29.83,ESE,107,6.8,9.2,84,0.00,CLR,,0.01,WeatherDisplay:10.37,2013-05-19 13:38:00,
2013-05-19 08:43:00,71.7,66.6,29.83,ESE,123,7.8,10.4,84,0.00,CLR,,0.01,WeatherDisplay:10.37,2013-05-19 13:43:00,
2013-05-19 08:48:00,72.2,66.7,29.83,ESE,109,6.5,10.4,83,0.00,CLR,,0.01,WeatherDisplay:10.37,2013-05-19 13:48:00,
2013-05-19 08:53:00,72.5,66.3,29.83,SE,140,3.3,4.6,81,0.00,CLR,,0.01,WeatherDisplay:10.37,2013-05-19 13:53:00,
2013-05-19 08:58:00,72.8,66.6,29.83,ESE,113,4.0,9.0,81,0.00,CLR,,0.01,WeatherDisplay:10.37,2013-05-19 13:58:00,
2013-05-19 09:04:00,72.9,66.4,29.83,East,98,7.1,9.2,80,0.00,CLR,,0.01,WeatherDisplay:10.37,2013-05-19 14:04:00,
2013-05-19 09:09:00,73.3,66.8,29.83,ESE,113,5.8,10.4,80,0.00,CLR,,0.01,WeatherDisplay:10.37,2013-05-19 14:09:00,
2013-05-19 09:14:00,73.5,66.9,29.83,ESE,115,1.7,3.0,80,0.00,CLR,,0.01,WeatherDisplay:10.37,2013-05-19 14:14:00,
2013-05-19 09:19:00,73.7,66.8,29.83,East,87,5.8,9.0,79,0.00,CLR,,0.01,WeatherDisplay:10.37,2013-05-19 14:19:00,
2013-05-19 09:24:00,74.0,67.4,29.83,ESE,115,4.1,5.8,80,0.00,CLR,,0.01,WeatherDisplay:10.37,2013-05-19 14:24:00,
2013-05-19 09:29:00,74.2,67.3,29.82,East,85,2.5,3.5,79,0.00,CLR,,0.01,WeatherDisplay:10.37,2013-05-19 14:29:00,
2013-05-19 09:34:00,74.5,67.2,29.82,ENE,71,2.0,3.5,78,0.00,CLR,,0.01,WeatherDisplay:10.37,2013-05-19 14:34:00,
2013-05-19 09:39:00,75.2,67.5,29.81,ESE,105,8.3,11.5,77,0.00,CLR,,0.01,WeatherDisplay:10.37,2013-05-19 14:39:00,
2013-05-19 09:44:00,75.9,67.4,29.82,ESE,110,10.9,16.1,75,0.00,CLR,,0.01,WeatherDisplay:10.37,2013-05-19 14:44:00,
2013-05-19 09:49:00,76.7,67.8,29.82,ESE,120,9.7,13.8,74,0.00,CLR,,0.01,WeatherDisplay:10.37,2013-05-19 14:49:00,
2013-05-19 09:54:00,76.9,68.0,29.81,ESE,108,11.1,16.1,74,0.00,CLR,,0.01,WeatherDisplay:10.37,2013-05-19 14:54:00,
2013-05-19 09:59:00,77.6,67.9,29.81,ESE,122,12.6,16.1,72,0.00,CLR,,0.01,WeatherDisplay:10.37,2013-05-19 14:59:00,
2013-05-19 10:04:00,77.9,67.7,29.81,SE,139,11.2,13.8,71,0.00,CLR,,0.01,WeatherDisplay:10.37,2013-05-19 15:04:00,
2013-05-19 10:09:00,78.4,68.2,29.81,ESE,113,11.9,16.1,71,0.00,CLR,,0.01,WeatherDisplay:10.37,2013-05-19 15:09:00,
2013-05-19 10:14:00,79.4,68.3,29.81,ESE,113,13.4,17.3,69,0.00,CLR,,0.01,WeatherDisplay:10.37,2013-05-19 15:14:00,
2013-05-19 10:19:00,79.9,68.8,29.81,SE,130,13.1,16.1,69,0.00,CLR,,0.01,WeatherDisplay:10.37,2013-05-19 15:19:00,
2013-05-19 10:24:00,80.5,68.1,29.81,East,99,15.7,19.6,66,0.00,CLR,,0.01,WeatherDisplay:10.37,2013-05-19 15:24:00,
2013-05-19 10:29:00,81.0,68.6,29.81,ESE,122,13.4,19.6,66,0.00,CLR,,0.01,WeatherDisplay:10.37,2013-05-19 15:29:00,
2013-05-19 10:34:00,81.7,67.9,29.80,ESE,122,13.5,17.3,63,0.00,CLR,,0.01,WeatherDisplay:10.37,2013-05-19 15:34:00,
2013-05-19 10:39:00,81.9,68.5,29.79,SE,124,16.5,21.9,64,0.00,CLR,,0.01,WeatherDisplay:10.37,2013-05-19 15:39:00,
2013-05-19 10:44:00,82.2,67.9,29.79,SE,146,17.4,21.0,62,0.00,CLR,,0.01,WeatherDisplay:10.37,2013-05-19 15:44:00,
2013-05-19 10:49:00,82.9,68.1,29.80,SE,134,16.0,19.6,61,0.00,CLR,,0.01,WeatherDisplay:10.37,2013-05-19 15:49:00,
2013-05-19 10:54:00,82.9,67.6,29.81,SSE,154,14.1,19.6,60,0.00,CLR,,0.01,WeatherDisplay:10.37,2013-05-19 15:54:00,
2013-05-19 10:59:00,83.3,68.0,29.82,SSE,150,15.9,19.6,60,0.00,CLR,,0.01,WeatherDisplay:10.37,2013-05-19 15:59:00,
2013-05-19 11:04:00,83.5,68.2,29.81,SSE,148,14.9,19.6,60,0.00,CLR,,0.01,WeatherDisplay:10.37,2013-05-19 16:04:00,
2013-05-19 11:09:00,83.6,68.2,29.81,SSE,148,16.7,19.6,60,0.00,CLR,,0.01,WeatherDisplay:10.37,2013-05-19 16:09:00,
2013-05-19 11:14:00,83.6,68.2,29.80,ESE,108,16.4,21.9,60,0.00,CLR,,0.01,WeatherDisplay:10.37,2013-05-19 16:14:00,
2013-05-19 11:20:00,83.9,68.0,29.79,SSE,149,17.2,20.7,59,0.00,CLR,,0.01,WeatherDisplay:10.37,2013-05-19 16:20:00,
2013-05-19 11:25:00,83.8,68.4,29.80,SSE,152,14.2,19.6,60,0.00,CLR,,0.01,WeatherDisplay:10.37,2013-05-19 16:25:00,
2013-05-19 11:30:00,84.6,68.2,29.80,SSE,165,15.4,18.4,58,0.00,CLR,,0.01,WeatherDisplay:10.37,2013-05-19 16:30:00,
2013-05-19 11:35:00,84.8,68.9,29.80,South,186,17.5,22.0,59,0.00,CLR,,0.01,WeatherDisplay:10.37,2013-05-19 16:35:00,
2013-05-19 11:40:00,84.8,68.9,29.79,SE,142,16.7,19.6,59,0.00,CLR,,0.01,WeatherDisplay:10.37,2013-05-19 16:40:00,
2013-05-19 11:45:00,85.0,68.6,29.80,SE,131,15.6,19.6,58,0.00,CLR,,0.01,WeatherDisplay:10.37,2013-05-19 16:45:00,
2013-05-19 11:50:00,84.9,68.5,29.79,SE,129,17.7,19.6,58,0.00,CLR,,0.01,WeatherDisplay:10.37,2013-05-19 16:50:00,
2013-05-19 11:55:00,85.1,68.7,29.79,SE,139,17.2,19.6,58,0.00,CLR,,0.01,WeatherDisplay:10.37,2013-05-19 16:55:00,
2013-05-19 12:00:00,85.0,68.5,29.79,SE,142,15.0,23.0,58,0.00,,,0.01,WeatherDisplay:10.37,2013-05-19 17:00:00,
2013-05-19 12:05:00,84.5,68.1,29.80,SSE,155,17.0,22.0,58,0.00,,,0.01,WeatherDisplay:10.37,2013-05-19 17:05:00,
2013-05-19 12:10:00,83.6,68.2,29.81,SE,141,16.5,19.6,60,0.00,,,0.01,WeatherDisplay:10.37,2013-05-19 17:10:00,
2013-05-19 12:15:00,83.0,68.2,29.81,South,177,15.4,20.7,61,0.00,,,0.01,WeatherDisplay:10.37,2013-05-19 17:15:00,
2013-05-19 12:20:00,82.1,67.8,29.82,South,186,15.0,18.4,62,0.00,,,0.01,WeatherDisplay:10.37,2013-05-19 17:20:00,
2013-05-19 12:25:00,81.6,68.2,29.81,SW,222,16.1,19.6,64,0.00,,,0.01,WeatherDisplay:10.37,2013-05-19 17:25:00,
2013-05-19 12:30:00,82.1,69.2,29.81,SSE,155,16.6,20.7,65,0.00,,,0.01,WeatherDisplay:10.37,2013-05-19 17:30:00,
2013-05-19 12:35:00,84.3,69.4,29.80,SSE,154,16.9,24.2,61,0.00,,,0.01,WeatherDisplay:10.37,2013-05-19 17:35:00,
2013-05-19 12:40:00,85.3,69.3,29.80,SE,137,17.9,20.7,59,0.00,,,0.01,WeatherDisplay:10.37,2013-05-19 17:40:00,
2013-05-19 12:45:00,85.4,69.4,29.80,SE,141,16.0,20.0,59,0.00,,,0.01,WeatherDisplay:10.37,2013-05-19 17:45:00,
2013-05-19 12:50:00,85.9,69.9,29.79,SSE,156,14.7,19.6,59,0.00,,,0.01,WeatherDisplay:10.37,2013-05-19 17:50:00,
2013-05-19 12:55:00,86.1,69.6,29.79,SSW,210,15.9,19.6,58,0.00,,,0.01,WeatherDisplay:10.37,2013-05-19 17:55:00,
2013-05-19 13:00:00,85.9,69.9,29.79,SE,138,13.5,17.3,59,0.00,,,0.01,WeatherDisplay:10.37,2013-05-19 18:00:00,
2013-05-19 13:05:00,86.6,69.6,29.78,South,169,16.8,21.9,57,0.00,,,0.01,WeatherDisplay:10.37,2013-05-19 18:05:00,
2013-05-19 13:10:00,86.8,69.2,29.78,South,181,13.3,16.1,56,0.00,,,0.01,WeatherDisplay:10.37,2013-05-19 18:10:00,
2013-05-19 13:15:00,86.6,69.6,29.77,SSE,150,14.4,19.6,57,0.00,,,0.01,WeatherDisplay:10.37,2013-05-19 18:15:00,
2013-05-19 13:21:00,86.1,69.1,29.76,South,170,12.0,18.4,57,0.00,,,0.01,WeatherDisplay:10.37,2013-05-19 18:21:00,
2013-05-19 13:26:00,85.6,69.1,29.76,SE,135,13.5,17.3,58,0.00,,,0.01,WeatherDisplay:10.37,2013-05-19 18:26:00,
2013-05-19 13:31:00,85.6,69.1,29.74,ESE,122,16.6,19.6,58,0.00,,,0.01,WeatherDisplay:10.37,2013-05-19 18:31:00,
2013-05-19 13:36:00,85.5,69.5,29.72,ESE,115,16.3,21.9,59,0.00,,,0.01,WeatherDisplay:10.37,2013-05-19 18:36:00,
2013-05-19 13:41:00,86.9,69.8,29.70,SE,135,21.1,23.0,57,0.00,,,0.01,WeatherDisplay:10.37,2013-05-19 18:41:00,
2013-05-19 13:46:00,87.6,69.4,29.70,SSE,150,21.8,24.2,55,0.00,,,0.01,WeatherDisplay:10.37,2013-05-19 18:46:00,
2013-05-19 13:51:00,88.3,69.5,29.70,SE,138,17.9,23.0,54,0.00,,,0.01,WeatherDisplay:10.37,2013-05-19 18:51:00,
2013-05-19 13:56:00,88.0,69.8,29.70,ESE,113,19.6,25.0,55,0.00,,,0.01,WeatherDisplay:10.37,2013-05-19 18:56:00,
2013-05-19 14:01:00,88.4,69.6,29.69,ESE,117,20.9,26.5,54,0.00,,,0.01,WeatherDisplay:10.37,2013-05-19 19:01:00,
2013-05-19 14:06:00,88.8,69.5,29.69,SE,131,19.8,20.7,53,0.00,,,0.01,WeatherDisplay:10.37,2013-05-19 19:06:00,
2013-05-19 14:11:00,88.9,69.0,29.68,ESE,114,19.3,25.3,52,0.00,,,0.01,WeatherDisplay:10.37,2013-05-19 19:11:00,
2013-05-19 14:16:00,89.0,69.6,29.68,ESE,110,17.6,20.7,53,0.00,,,0.01,WeatherDisplay:10.37,2013-05-19 19:16:00,
2013-05-19 14:21:00,89.2,69.8,29.68,ESE,110,18.2,18.4,53,0.00,,,0.01,WeatherDisplay:10.37,2013-05-19 19:21:00,
2013-05-19 14:26:00,89.2,69.8,29.68,SE,131,16.8,19.6,53,0.00,,,0.01,WeatherDisplay:10.37,2013-05-19 19:26:00,
2013-05-19 14:31:00,89.3,69.4,29.68,SE,141,15.5,19.6,52,0.00,,,0.01,WeatherDisplay:10.37,2013-05-19 19:31:00,
2013-05-19 14:36:00,89.8,69.8,29.67,ESE,123,13.8,18.4,52,0.00,,,0.01,WeatherDisplay:10.37,2013-05-19 19:36:00,
2013-05-19 14:41:00,89.8,69.3,29.67,ESE,103,11.3,17.3,51,0.00,,,0.01,WeatherDisplay:10.37,2013-05-19 19:41:00,
2013-05-19 14:46:00,90.2,68.5,29.66,ESE,111,16.5,19.6,49,0.00,,,0.01,WeatherDisplay:10.37,2013-05-19 19:46:00,
2013-05-19 14:51:00,90.2,68.5,29.67,ESE,122,14.1,18.4,49,0.00,,,0.01,WeatherDisplay:10.37,2013-05-19 19:51:00,
2013-05-19 14:56:00,89.9,68.8,29.66,East,81,13.7,19.6,50,0.00,,,0.01,WeatherDisplay:10.37,2013-05-19 19:56:00,
2013-05-19 15:01:00,89.4,68.3,29.67,SE,134,14.8,18.4,50,0.00,,,0.01,WeatherDisplay:10.37,2013-05-19 20:01:00,
2013-05-19 15:06:00,89.9,68.8,29.68,SE,127,14.7,19.6,50,0.00,,,0.01,WeatherDisplay:10.37,2013-05-19 20:06:00,
2013-05-19 15:11:00,90.4,69.2,29.69,SSE,150,15.3,18.4,50,0.00,,,0.01,WeatherDisplay:10.37,2013-05-19 20:11:00,
2013-05-19 15:16:00,91.3,68.2,29.69,South,188,19.2,19.6,47,0.00,,,0.01,WeatherDisplay:10.37,2013-05-19 20:16:00,
2013-05-19 15:21:00,90.7,68.9,29.69,SSE,148,18.5,24.2,49,0.00,,,0.01,WeatherDisplay:10.37,2013-05-19 20:21:00,
2013-05-19 15:26:00,90.8,69.0,29.69,South,181,18.0,19.6,49,0.00,,,0.01,WeatherDisplay:10.37,2013-05-19 20:26:00,
2013-05-19 15:31:00,91.0,69.2,29.70,SSE,167,19.0,23.0,49,0.00,,,0.01,WeatherDisplay:10.37,2013-05-19 20:31:00,
2013-05-19 15:36:00,90.9,69.1,29.69,South,169,15.7,23.0,49,0.00,,,0.01,WeatherDisplay:10.37,2013-05-19 20:36:00,
2013-05-19 15:41:00,89.7,68.6,29.69,SSE,155,14.1,21.9,50,0.00,,,0.01,WeatherDisplay:10.37,2013-05-19 20:41:00,
2013-05-19 15:46:00,89.6,69.1,29.69,SSE,151,13.9,19.6,51,0.00,,,0.01,WeatherDisplay:10.37,2013-05-19 20:46:00,
2013-05-19 15:51:00,89.7,69.2,29.69,SSE,150,16.3,19.6,51,0.00,,,0.01,WeatherDisplay:10.37,2013-05-19 20:51:00,
2013-05-19 15:56:00,90.0,69.4,29.68,South,177,13.9,19.6,51,0.00,,,0.01,WeatherDisplay:10.37,2013-05-19 20:56:00,
2013-05-19 16:01:00,90.2,69.6,29.68,South,176,14.9,19.6,51,0.00,,,0.01,WeatherDisplay:10.37,2013-05-19 21:01:00,
2013-05-19 16:06:00,90.2,69.6,29.68,SSE,156,16.9,16.9,51,0.00,,,0.01,WeatherDisplay:10.37,2013-05-19 21:06:00,
2013-05-19 16:11:00,90.5,69.3,29.69,SE,134,14.7,19.0,50,0.00,,,0.01,WeatherDisplay:10.37,2013-05-19 21:11:00,
2013-05-19 16:16:00,90.1,69.5,29.68,ESE,113,12.7,17.3,51,0.00,,,0.01,WeatherDisplay:10.37,2013-05-19 21:16:00,
2013-05-19 16:22:00,90.7,70.1,29.68,SSW,198,15.3,18.4,51,0.00,,,0.01,WeatherDisplay:10.37,2013-05-19 21:22:00,
2013-05-19 16:27:00,90.9,69.7,29.67,SE,138,14.6,17.3,50,0.00,,,0.01,WeatherDisplay:10.37,2013-05-19 21:27:00,
2013-05-19 16:32:00,90.4,69.8,29.67,SE,135,13.7,18.4,51,0.00,,,0.01,WeatherDisplay:10.37,2013-05-19 21:32:00,
2013-05-19 16:37:00,91.0,70.4,29.67,SE,133,13.7,18.4,51,0.00,,,0.01,WeatherDisplay:10.37,2013-05-19 21:37:00,
2013-05-19 16:42:00,90.7,70.1,29.66,SSE,148,15.9,19.6,51,0.00,,,0.01,WeatherDisplay:10.37,2013-05-19 21:42:00,
2013-05-19 16:47:00,90.6,69.4,29.66,SSE,153,17.7,24.2,50,0.00,,,0.01,WeatherDisplay:10.37,2013-05-19 21:47:00,
2013-05-19 16:52:00,90.4,69.2,29.66,SSE,158,18.1,23.0,50,0.00,,,0.01,WeatherDisplay:10.37,2013-05-19 21:52:00,
2013-05-19 16:57:00,90.3,69.1,29.66,SSE,159,15.2,19.6,50,0.00,,,0.01,WeatherDisplay:10.37,2013-05-19 21:57:00,
2013-05-19 17:02:00,90.8,69.6,29.66,SE,138,16.7,20.7,50,0.00,,,0.01,WeatherDisplay:10.37,2013-05-19 22:02:00,
2013-05-19 17:07:00,90.8,69.6,29.66,SSE,163,15.7,20.7,50,0.00,,,0.01,WeatherDisplay:10.37,2013-05-19 22:07:00,
2013-05-19 17:12:00,90.3,69.7,29.65,SE,134,17.7,20.7,51,0.00,,,0.01,WeatherDisplay:10.37,2013-05-19 22:12:00,
2013-05-19 17:17:00,89.8,69.8,29.65,SSE,148,15.0,19.6,52,0.00,,,0.01,WeatherDisplay:10.37,2013-05-19 22:17:00,
2013-05-19 17:22:00,89.5,70.1,29.65,SSE,151,14.9,17.3,53,0.00,,,0.01,WeatherDisplay:10.37,2013-05-19 22:22:00,
2013-05-19 17:27:00,89.3,70.5,29.64,South,169,13.2,15.0,54,0.00,,,0.01,WeatherDisplay:10.37,2013-05-19 22:27:00,
2013-05-19 17:32:00,89.5,69.5,29.64,SE,131,17.4,21.9,52,0.00,,,0.01,WeatherDisplay:10.37,2013-05-19 22:32:00,
2013-05-19 17:37:00,90.0,69.4,29.64,SSE,160,15.0,19.6,51,0.00,,,0.01,WeatherDisplay:10.37,2013-05-19 22:37:00,
2013-05-19 17:42:00,90.0,69.4,29.64,SSE,153,17.2,21.9,51,0.00,,,0.01,WeatherDisplay:10.37,2013-05-19 22:42:00,
2013-05-19 17:47:00,89.3,69.4,29.64,SSE,167,16.8,21.9,52,0.00,,,0.01,WeatherDisplay:10.37,2013-05-19 22:47:00,
2013-05-19 17:52:00,88.4,69.6,29.63,South,173,15.4,19.6,54,0.00,,,0.01,WeatherDisplay:10.37,2013-05-19 22:52:00,
2013-05-19 17:58:00,87.8,69.6,29.63,South,172,15.1,19.6,55,0.00,,,0.01,WeatherDisplay:10.37,2013-05-19 22:58:00,
2013-05-19 18:03:00,87.4,69.8,29.64,SSW,193,10.8,14.0,56,0.00,,,0.01,WeatherDisplay:10.37,2013-05-19 23:03:00,
2013-05-19 18:08:00,87.1,69.5,29.64,SSW,201,12.2,16.1,56,0.00,,,0.01,WeatherDisplay:10.37,2013-05-19 23:08:00,
2013-05-19 18:13:00,86.7,69.6,29.64,SSE,166,12.0,12.7,57,0.00,,,0.01,WeatherDisplay:10.37,2013-05-19 23:13:00,
2013-05-19 18:18:00,86.6,69.6,29.64,South,169,11.9,16.1,57,0.00,,,0.01,WeatherDisplay:10.37,2013-05-19 23:18:00,
2013-05-19 18:23:00,86.4,69.9,29.65,South,170,12.3,16.1,58,0.00,,,0.01,WeatherDisplay:10.37,2013-05-19 23:23:00,
2013-05-19 18:28:00,86.2,69.2,29.65,South,177,11.6,16.1,57,0.00,,,0.01,WeatherDisplay:10.37,2013-05-19 23:28:00,
2013-05-19 18:33:00,86.0,69.5,29.66,SSE,166,13.7,18.0,58,0.00,,,0.01,WeatherDisplay:10.37,2013-05-19 23:33:00,
2013-05-19 18:38:00,85.9,69.9,29.65,SSE,155,14.3,17.0,59,0.00,,,0.01,WeatherDisplay:10.37,2013-05-19 23:38:00,
2013-05-19 18:43:00,85.7,69.7,29.65,South,180,10.6,11.5,59,0.00,,,0.01,WeatherDisplay:10.37,2013-05-19 23:43:00,
2013-05-19 18:48:00,85.6,69.6,29.65,South,179,10.4,17.3,59,0.00,,,0.01,WeatherDisplay:10.37,2013-05-19 23:48:00,
2013-05-19 18:53:00,85.4,69.9,29.65,SSE,158,11.4,12.7,60,0.00,,,0.01,WeatherDisplay:10.37,2013-05-19 23:53:00,
2013-05-19 18:58:00,85.2,69.7,29.66,SSW,194,11.7,13.8,60,0.00,,,0.01,WeatherDisplay:10.37,2013-05-19 23:58:00,
2013-05-19 19:03:00,85.1,69.7,29.66,SSW,197,11.4,15.0,60,0.00,,,0.01,WeatherDisplay:10.37,2013-05-20 00:03:00,
2013-05-19 19:08:00,82.5,61.4,29.69,SSW,209,25.1,34.5,49,0.00,,,0.01,WeatherDisplay:10.37,2013-05-20 00:08:00,
2013-05-19 19:13:00,77.1,61.2,29.72,SW,230,21.3,29.0,58,0.00,,,0.01,WeatherDisplay:10.37,2013-05-20 00:13:00,
2013-05-19 19:18:00,72.7,61.1,29.76,West,267,22.6,29.0,67,0.01,RA,,0.02,WeatherDisplay:10.37,2013-05-20 00:18:00,
2013-05-19 19:23:00,69.3,62.1,29.71,WNW,302,12.1,19.6,78,0.05,RA,,0.07,WeatherDisplay:10.37,2013-05-20 00:23:00,
2013-05-19 19:28:00,67.4,60.3,29.72,WNW,290,11.9,15.0,78,0.07,RA,,0.09,WeatherDisplay:10.37,2013-05-20 00:28:00,
2013-05-19 19:34:00,67.4,60.3,29.68,North,352,4.2,8.1,78,0.08,RA,,0.09,WeatherDisplay:10.37,2013-05-20 00:34:00,
2013-05-19 19:39:00,68.0,60.2,29.67,NNE,12,3.5,6.9,76,0.08,RA,,0.09,WeatherDisplay:10.37,2013-05-20 00:39:00,
2013-05-19 19:44:00,68.1,60.2,29.66,WNW,295,1.0,3.5,76,0.08,,,0.09,WeatherDisplay:10.37,2013-05-20 00:44:00,
2013-05-19 19:49:00,69.0,59.6,29.65,NNW,329,4.2,5.8,72,0.08,,,0.09,WeatherDisplay:10.37,2013-05-20 00:49:00,
2013-05-19 19:54:00,71.2,58.8,29.63,East,89,0.0,0.0,65,0.08,,,0.09,WeatherDisplay:10.37,2013-05-20 00:54:00,
2013-05-19 19:59:00,70.8,60.9,29.63,ESE,123,8.9,13.0,71,0.08,,,0.09,WeatherDisplay:10.37,2013-05-20 00:59:00,
2013-05-19 20:04:00,70.1,60.7,29.66,SE,144,15.0,18.4,72,0.08,,,0.09,WeatherDisplay:10.37,2013-05-20 01:04:00,
2013-05-19 20:09:00,70.3,60.8,29.65,SE,127,11.5,15.0,72,0.08,,,0.09,WeatherDisplay:10.37,2013-05-20 01:09:00,
2013-05-19 20:14:00,70.8,60.1,29.63,ESE,109,7.6,11.0,69,0.08,,,0.09,WeatherDisplay:10.37,2013-05-20 01:14:00,
2013-05-19 20:19:00,71.0,61.1,29.61,NE,49,4.6,8.1,71,0.07,,,0.09,WeatherDisplay:10.37,2013-05-20 01:19:00,
2013-05-19 20:24:00,70.8,61.7,29.61,SE,134,5.5,9.2,73,0.01,,,0.09,WeatherDisplay:10.37,2013-05-20 01:24:00,
2013-05-19 20:29:00,69.9,61.2,29.64,SE,140,8.9,11.5,74,0.00,,,0.09,WeatherDisplay:10.37,2013-05-20 01:29:00,
2013-05-19 20:34:00,69.9,61.6,29.64,SE,143,4.3,5.8,75,0.00,,,0.09,WeatherDisplay:10.37,2013-05-20 01:34:00,
2013-05-19 20:39:00,69.4,62.2,29.65,SE,131,5.0,5.8,78,0.00,,,0.09,WeatherDisplay:10.37,2013-05-20 01:39:00,
2013-05-19 20:44:00,69.3,61.8,29.66,East,85,7.6,11.5,77,0.00,,,0.09,WeatherDisplay:10.37,2013-05-20 01:44:00,
2013-05-19 20:49:00,69.1,61.6,29.65,SE,130,7.5,11.5,77,0.00,,,0.09,WeatherDisplay:10.37,2013-05-20 01:49:00,
2013-05-19 20:54:00,68.6,61.8,29.66,East,91,10.5,13.8,79,0.00,,,0.09,WeatherDisplay:10.37,2013-05-20 01:54:00,
2013-05-19 20:59:00,68.1,62.0,29.66,SE,125,9.1,12.7,81,0.00,,,0.09,WeatherDisplay:10.37,2013-05-20 01:59:00,
2013-05-19 21:04:00,67.5,61.8,29.66,ESE,119,7.8,11.5,82,0.00,,,0.09,WeatherDisplay:10.37,2013-05-20 02:04:00,
2013-05-19 21:10:00,67.2,61.9,29.66,ESE,119,5.4,5.8,83,0.00,,,0.09,WeatherDisplay:10.37,2013-05-20 02:10:00,
2013-05-19 21:15:00,67.1,61.8,29.66,ESE,119,7.1,9.2,83,0.00,,,0.09,WeatherDisplay:10.37,2013-05-20 02:15:00,
2013-05-19 21:20:00,67.3,62.0,29.66,ESE,113,6.0,10.0,83,0.00,,,0.09,WeatherDisplay:10.37,2013-05-20 02:20:00,
2013-05-19 21:25:00,67.1,62.1,29.65,East,98,4.0,4.6,84,0.00,,,0.09,WeatherDisplay:10.37,2013-05-20 02:25:00,
2013-05-19 21:30:00,67.3,61.6,29.65,ESE,116,6.0,8.0,82,0.00,,,0.09,WeatherDisplay:10.37,2013-05-20 02:30:00,
2013-05-19 21:35:00,67.5,62.2,29.64,ESE,108,6.0,9.2,83,0.00,,,0.09,WeatherDisplay:10.37,2013-05-20 02:35:00,
2013-05-19 21:40:00,67.5,62.2,29.63,ESE,117,8.4,11.5,83,0.00,,,0.09,WeatherDisplay:10.37,2013-05-20 02:40:00,
2013-05-19 21:45:00,67.8,61.8,29.63,SE,129,10.3,12.7,81,0.00,,,0.09,WeatherDisplay:10.37,2013-05-20 02:45:00,
2013-05-19 21:50:00,67.9,61.9,29.62,East,99,9.1,12.7,81,0.00,,,0.09,WeatherDisplay:10.37,2013-05-20 02:50:00,
2013-05-19 21:55:00,67.7,62.3,29.62,East,101,7.1,9.2,83,0.00,,,0.09,WeatherDisplay:10.37,2013-05-20 02:55:00,
2013-05-19 22:00:00,67.7,62.0,29.62,East,86,8.9,11.5,82,0.00,,,0.09,WeatherDisplay:10.37,2013-05-20 03:00:00,
2013-05-19 22:05:00,68.0,61.9,29.62,ESE,113,9.8,12.7,81,0.00,,,0.09,WeatherDisplay:10.37,2013-05-20 03:05:00,
2013-05-19 22:10:00,68.2,61.8,29.62,ESE,105,11.6,13.8,80,0.00,,,0.09,WeatherDisplay:10.37,2013-05-20 03:10:00,
2013-05-19 22:15:00,68.4,61.6,29.63,ESE,106,10.5,12.7,79,0.00,,,0.09,WeatherDisplay:10.37,2013-05-20 03:15:00,
2013-05-19 22:20:00,68.5,61.7,29.64,ESE,105,8.7,12.7,79,0.00,,,0.09,WeatherDisplay:10.37,2013-05-20 03:20:00,
2013-05-19 22:25:00,68.3,61.9,29.64,SE,124,8.9,12.0,80,0.00,,,0.09,WeatherDisplay:10.37,2013-05-20 03:25:00,
2013-05-19 22:30:00,68.2,61.8,29.65,SE,127,9.8,12.7,80,0.00,,,0.09,WeatherDisplay:10.37,2013-05-20 03:30:00,
2013-05-19 22:35:00,67.9,61.9,29.65,ESE,120,6.2,8.0,81,0.00,,,0.09,WeatherDisplay:10.37,2013-05-20 03:35:00,
2013-05-19 22:40:00,67.7,61.7,29.66,ESE,108,9.1,11.5,81,0.00,,,0.09,WeatherDisplay:10.37,2013-05-20 03:40:00,
2013-05-19 22:45:00,67.8,61.4,29.66,SE,132,10.9,12.7,80,0.00,,,0.09,WeatherDisplay:10.37,2013-05-20 03:45:00,
2013-05-19 22:51:00,68.3,61.5,29.67,ESE,122,10.8,12.7,79,0.00,,,0.09,WeatherDisplay:10.37,2013-05-20 03:51:00,
2013-05-19 22:56:00,68.1,62.0,29.68,SE,125,8.0,11.5,81,0.00,,,0.09,WeatherDisplay:10.37,2013-05-20 03:56:00,
2013-05-19 23:01:00,67.7,62.0,29.68,SE,140,9.1,11.5,82,0.00,,,0.09,WeatherDisplay:10.37,2013-05-20 04:01:00,
2013-05-19 23:02:00,67.7,62.0,29.69,SE,131,8.6,11.5,82,0.00,,,0.09,WeatherDisplay:10.37,2013-05-20 04:02:00,
2013-05-19 23:03:00,67.7,62.0,29.69,SE,127,8.4,10.4,82,0.00,,,0.09,WeatherDisplay:10.37,2013-05-20 04:03:00,
2013-05-19 23:08:00,67.6,61.9,29.69,SE,140,8.3,11.5,82,0.00,,,0.09,WeatherDisplay:10.37,2013-05-20 04:08:00,
2013-05-19 23:13:00,67.8,62.4,29.68,SE,125,7.6,9.2,83,0.00,,,0.09,WeatherDisplay:10.37,2013-05-20 04:13:00,
2013-05-19 23:18:00,67.9,62.5,29.68,SE,124,9.1,12.7,83,0.00,,,0.09,WeatherDisplay:10.37,2013-05-20 04:18:00,
2013-05-19 23:23:00,68.4,62.7,29.67,SE,136,11.6,15.0,82,0.00,,,0.09,WeatherDisplay:10.37,2013-05-20 04:23:00,
2013-05-19 23:28:00,69.0,62.9,29.67,ESE,121,9.9,12.7,81,0.00,,,0.09,WeatherDisplay:10.37,2013-05-20 04:28:00,
2013-05-19 23:33:00,69.2,63.1,29.67,SE,140,10.1,11.5,81,0.00,,,0.09,WeatherDisplay:10.37,2013-05-20 04:33:00,
2013-05-19 23:38:00,68.9,63.2,29.66,ESE,116,9.5,11.5,82,0.00,,,0.09,WeatherDisplay:10.37,2013-05-20 04:38:00,
2013-05-19 23:43:00,68.7,63.3,29.65,ESE,122,9.3,11.5,83,0.00,,,0.09,WeatherDisplay:10.37,2013-05-20 04:43:00,
2013-05-19 23:48:00,68.9,63.5,29.65,ESE,119,9.5,11.5,83,0.00,,,0.09,WeatherDisplay:10.37,2013-05-20 04:48:00,
2013-05-19 23:53:00,69.4,63.7,29.66,SE,140,10.5,12.7,82,0.00,,,0.09,WeatherDisplay:10.37,2013-05-20 04:53:00,
2013-05-19 23:58:00,69.7,64.3,29.65,SE,127,9.2,11.5,83,0.00,,,0.09,WeatherDisplay:10.37,2013-05-20 04:58:00,